sensor_id;sensor_type;location;lat;lon;timestamp;pressure;altitude;pressure_sealevel;temperature;humidity
41706;BME280;27385;51.096;17.190;2023-03-31T00:00:15;99459.77;;;9.06;83.48
41706;BME280;27385;51.096;17.190;2023-03-31T00:03:07;99457.11;;;9.07;83.32
41706;BME280;27385;51.096;17.190;2023-03-31T00:05:38;99455.40;;;9.08;83.36
41706;BME280;27385;51.096;17.190;2023-03-31T00:08:11;99454.04;;;9.08;83.20
41706;BME280;27385;51.096;17.190;2023-03-31T00:10:45;99450.48;;;9.09;83.19
41706;BME280;27385;51.096;17.190;2023-03-31T00:13:16;99442.84;;;9.08;83.13
41706;BME280;27385;51.096;17.190;2023-03-31T00:15:47;99443.73;;;9.06;83.03
41706;BME280;27385;51.096;17.190;2023-03-31T00:18:18;99439.89;;;9.03;82.92
41706;BME280;27385;51.096;17.190;2023-03-31T00:20:49;99444.98;;;8.98;82.74
41706;BME280;27385;51.096;17.190;2023-03-31T00:23:21;99448.70;;;8.91;82.65
41706;BME280;27385;51.096;17.190;2023-03-31T00:25:56;99443.81;;;8.84;82.85
41706;BME280;27385;51.096;17.190;2023-03-31T00:28:27;99439.67;;;8.78;82.75
41706;BME280;27385;51.096;17.190;2023-03-31T00:31:02;99439.05;;;8.73;82.99
41706;BME280;27385;51.096;17.190;2023-03-31T00:33:32;99435.43;;;8.70;83.08
41706;BME280;27385;51.096;17.190;2023-03-31T00:36:04;99439.09;;;8.67;82.94
41706;BME280;27385;51.096;17.190;2023-03-31T00:38:35;99434.49;;;8.66;83.09
41706;BME280;27385;51.096;17.190;2023-03-31T00:41:06;99434.73;;;8.64;82.94
41706;BME280;27385;51.096;17.190;2023-03-31T00:43:37;99432.21;;;8.61;82.93
41706;BME280;27385;51.096;17.190;2023-03-31T00:46:14;99429.11;;;8.60;82.82
41706;BME280;27385;51.096;17.190;2023-03-31T00:48:49;99428.63;;;8.58;82.70
41706;BME280;27385;51.096;17.190;2023-03-31T00:51:22;99424.56;;;8.56;82.58
41706;BME280;27385;51.096;17.190;2023-03-31T00:53:55;99421.97;;;8.53;82.63
41706;BME280;27385;51.096;17.190;2023-03-31T00:56:31;99419.03;;;8.48;82.89
41706;BME280;27385;51.096;17.190;2023-03-31T00:59:06;99422.04;;;8.39;83.05
41706;BME280;27385;51.096;17.190;2023-03-31T01:01:39;99419.83;;;8.33;83.16
41706;BME280;27385;51.096;17.190;2023-03-31T01:04:13;99416.52;;;8.29;83.56
41706;BME280;27385;51.096;17.190;2023-03-31T01:06:51;99414.52;;;8.26;83.57
41706;BME280;27385;51.096;17.190;2023-03-31T01:09:26;99411.15;;;8.25;83.77
41706;BME280;27385;51.096;17.190;2023-03-31T01:11:59;99407.32;;;8.24;83.76
41706;BME280;27385;51.096;17.190;2023-03-31T01:14:31;99403.92;;;8.23;83.90
41706;BME280;27385;51.096;17.190;2023-03-31T01:17:02;99405.65;;;8.24;83.79
41706;BME280;27385;51.096;17.190;2023-03-31T01:19:44;99401.95;;;8.23;83.76
41706;BME280;27385;51.096;17.190;2023-03-31T01:25:52;99391.91;;;8.21;83.69
41706;BME280;27385;51.096;17.190;2023-03-31T01:28:37;99389.79;;;8.21;83.58
41706;BME280;27385;51.096;17.190;2023-03-31T01:31:49;99395.04;;;8.20;83.68
41706;BME280;27385;51.096;17.190;2023-03-31T01:34:53;99396.82;;;8.18;83.65
41706;BME280;27385;51.096;17.190;2023-03-31T01:43:39;99382.05;;;8.10;83.90
41706;BME280;27385;51.096;17.190;2023-03-31T01:46:20;99383.19;;;8.09;83.80
41706;BME280;27385;51.096;17.190;2023-03-31T01:49:02;99380.56;;;8.09;83.66
41706;BME280;27385;51.096;17.190;2023-03-31T01:51:42;99382.39;;;8.09;83.76
41706;BME280;27385;51.096;17.190;2023-03-31T01:54:19;99381.30;;;8.07;83.90
41706;BME280;27385;51.096;17.190;2023-03-31T01:56:53;99377.23;;;8.06;83.86
41706;BME280;27385;51.096;17.190;2023-03-31T01:59:28;99378.19;;;8.05;84.09
41706;BME280;27385;51.096;17.190;2023-03-31T02:02:04;99374.02;;;8.04;84.06
41706;BME280;27385;51.096;17.190;2023-03-31T02:04:40;99373.24;;;8.02;84.02
41706;BME280;27385;51.096;17.190;2023-03-31T02:07:17;99368.73;;;8.02;84.19
41706;BME280;27385;51.096;17.190;2023-03-31T02:09:51;99373.11;;;8.01;84.25
41706;BME280;27385;51.096;17.190;2023-03-31T02:12:26;99376.01;;;7.99;84.36
41706;BME280;27385;51.096;17.190;2023-03-31T02:15:02;99371.92;;;7.98;84.27
41706;BME280;27385;51.096;17.190;2023-03-31T02:17:33;99372.31;;;7.98;84.17
41706;BME280;27385;51.096;17.190;2023-03-31T02:20:11;99371.10;;;7.98;84.20
41706;BME280;27385;51.096;17.190;2023-03-31T02:22:49;99375.52;;;7.99;84.14
41706;BME280;27385;51.096;17.190;2023-03-31T02:25:24;99375.13;;;7.97;84.08
41706;BME280;27385;51.096;17.190;2023-03-31T02:28:00;99371.69;;;7.96;84.02
41706;BME280;27385;51.096;17.190;2023-03-31T02:30:37;99370.61;;;7.96;83.96
41706;BME280;27385;51.096;17.190;2023-03-31T02:33:12;99362.40;;;7.95;83.82
41706;BME280;27385;51.096;17.190;2023-03-31T02:35:44;99360.94;;;7.94;83.75
41706;BME280;27385;51.096;17.190;2023-03-31T02:38:15;99360.73;;;7.94;83.65
41706;BME280;27385;51.096;17.190;2023-03-31T02:40:46;99361.00;;;7.92;83.67
41706;BME280;27385;51.096;17.190;2023-03-31T02:43:17;99352.84;;;7.90;83.48
41706;BME280;27385;51.096;17.190;2023-03-31T02:45:49;99351.77;;;7.86;83.64
41706;BME280;27385;51.096;17.190;2023-03-31T02:48:23;99351.52;;;7.84;83.51
41706;BME280;27385;51.096;17.190;2023-03-31T02:54:17;99340.98;;;7.81;83.28
41706;BME280;27385;51.096;17.190;2023-03-31T02:56:56;99339.26;;;7.77;83.26
41706;BME280;27385;51.096;17.190;2023-03-31T02:59:42;99341.70;;;7.75;83.20
41706;BME280;27385;51.096;17.190;2023-03-31T03:02:20;99332.50;;;7.72;83.17
41706;BME280;27385;51.096;17.190;2023-03-31T03:05:15;99329.19;;;7.70;82.99
41706;BME280;27385;51.096;17.190;2023-03-31T03:07:54;99332.27;;;7.67;83.04
41706;BME280;27385;51.096;17.190;2023-03-31T03:10:36;99332.17;;;7.64;83.06
41706;BME280;27385;51.096;17.190;2023-03-31T03:13:13;99331.30;;;7.61;83.12
41706;BME280;27385;51.096;17.190;2023-03-31T03:15:48;99332.53;;;7.59;83.26
41706;BME280;27385;51.096;17.190;2023-03-31T03:18:22;99332.63;;;7.55;83.10
41706;BME280;27385;51.096;17.190;2023-03-31T03:20:53;99331.29;;;7.51;82.87
41706;BME280;27385;51.096;17.190;2023-03-31T03:23:24;99331.80;;;7.47;83.07
41706;BME280;27385;51.096;17.190;2023-03-31T03:25:55;99326.11;;;7.46;83.02
41706;BME280;27385;51.096;17.190;2023-03-31T03:28:26;99324.31;;;7.44;83.05
41706;BME280;27385;51.096;17.190;2023-03-31T03:30:56;99320.67;;;7.41;82.90
41706;BME280;27385;51.096;17.190;2023-03-31T03:33:27;99322.00;;;7.38;82.81
41706;BME280;27385;51.096;17.190;2023-03-31T03:35:58;99322.71;;;7.35;82.89
41706;BME280;27385;51.096;17.190;2023-03-31T03:38:29;99318.45;;;7.31;83.01
41706;BME280;27385;51.096;17.190;2023-03-31T03:41:00;99312.15;;;7.26;82.92
41706;BME280;27385;51.096;17.190;2023-03-31T03:43:31;99310.07;;;7.22;82.98
41706;BME280;27385;51.096;17.190;2023-03-31T03:46:02;99310.62;;;7.19;83.09
41706;BME280;27385;51.096;17.190;2023-03-31T03:48:33;99309.54;;;7.16;83.19
41706;BME280;27385;51.096;17.190;2023-03-31T03:51:04;99308.52;;;7.11;83.35
41706;BME280;27385;51.096;17.190;2023-03-31T03:53:35;99302.30;;;7.08;83.70
41706;BME280;27385;51.096;17.190;2023-03-31T03:56:06;99303.52;;;7.06;84.09
41706;BME280;27385;51.096;17.190;2023-03-31T03:58:37;99297.87;;;7.06;84.16
41706;BME280;27385;51.096;17.190;2023-03-31T04:01:08;99301.52;;;7.05;84.24
41706;BME280;27385;51.096;17.190;2023-03-31T04:03:39;99297.39;;;7.04;84.53
41706;BME280;27385;51.096;17.190;2023-03-31T04:06:10;99298.43;;;7.03;84.69
41706;BME280;27385;51.096;17.190;2023-03-31T04:08:41;99301.16;;;7.04;84.55
41706;BME280;27385;51.096;17.190;2023-03-31T04:11:15;99302.42;;;7.04;84.59
41706;BME280;27385;51.096;17.190;2023-03-31T04:13:47;99301.96;;;7.04;84.60
41706;BME280;27385;51.096;17.190;2023-03-31T04:16:18;99295.56;;;7.03;84.60
41706;BME280;27385;51.096;17.190;2023-03-31T04:18:51;99294.27;;;7.02;84.69
41706;BME280;27385;51.096;17.190;2023-03-31T04:21:25;99286.69;;;7.02;84.76
41706;BME280;27385;51.096;17.190;2023-03-31T04:23:56;99284.32;;;7.02;84.79
41706;BME280;27385;51.096;17.190;2023-03-31T04:26:31;99284.38;;;7.01;84.78
41706;BME280;27385;51.096;17.190;2023-03-31T04:29:07;99277.12;;;7.00;84.77
41706;BME280;27385;51.096;17.190;2023-03-31T04:31:39;99278.89;;;7.00;84.82
41706;BME280;27385;51.096;17.190;2023-03-31T04:34:12;99277.17;;;6.99;84.88
41706;BME280;27385;51.096;17.190;2023-03-31T04:36:45;99274.98;;;6.98;85.01
41706;BME280;27385;51.096;17.190;2023-03-31T04:39:18;99274.55;;;6.97;84.89
41706;BME280;27385;51.096;17.190;2023-03-31T04:41:55;99269.67;;;6.95;84.83
41706;BME280;27385;51.096;17.190;2023-03-31T04:44:26;99273.21;;;6.96;84.83
41706;BME280;27385;51.096;17.190;2023-03-31T04:46:57;99273.23;;;6.97;84.88
41706;BME280;27385;51.096;17.190;2023-03-31T04:49:31;99268.73;;;6.96;84.82
41706;BME280;27385;51.096;17.190;2023-03-31T04:52:02;99266.10;;;6.95;84.92
41706;BME280;27385;51.096;17.190;2023-03-31T04:54:33;99260.52;;;6.94;84.82
41706;BME280;27385;51.096;17.190;2023-03-31T04:57:04;99250.75;;;6.95;84.76
41706;BME280;27385;51.096;17.190;2023-03-31T04:59:35;99245.39;;;6.97;84.73
41706;BME280;27385;51.096;17.190;2023-03-31T05:02:06;99242.42;;;6.98;84.61
41706;BME280;27385;51.096;17.190;2023-03-31T05:04:37;99240.23;;;6.99;84.64
41706;BME280;27385;51.096;17.190;2023-03-31T05:07:07;99240.62;;;7.00;84.66
41706;BME280;27385;51.096;17.190;2023-03-31T05:09:39;99237.25;;;7.01;84.51
41706;BME280;27385;51.096;17.190;2023-03-31T05:12:10;99239.60;;;7.00;84.54
41706;BME280;27385;51.096;17.190;2023-03-31T05:14:41;99242.02;;;6.98;84.58
41706;BME280;27385;51.096;17.190;2023-03-31T05:17:11;99242.76;;;6.97;84.53
41706;BME280;27385;51.096;17.190;2023-03-31T05:19:43;99243.89;;;6.97;84.69
41706;BME280;27385;51.096;17.190;2023-03-31T05:22:13;99245.04;;;6.97;84.86
41706;BME280;27385;51.096;17.190;2023-03-31T05:24:45;99247.36;;;6.97;84.91
41706;BME280;27385;51.096;17.190;2023-03-31T05:27:16;99246.55;;;6.95;85.16
41706;BME280;27385;51.096;17.190;2023-03-31T05:29:47;99246.33;;;6.93;85.29
41706;BME280;27385;51.096;17.190;2023-03-31T05:32:19;99243.45;;;6.92;85.57
41706;BME280;27385;51.096;17.190;2023-03-31T05:34:50;99239.52;;;6.93;85.65
41706;BME280;27385;51.096;17.190;2023-03-31T05:37:25;99239.42;;;6.93;86.16
41706;BME280;27385;51.096;17.190;2023-03-31T05:39:56;99237.94;;;6.95;86.49
41706;BME280;27385;51.096;17.190;2023-03-31T05:42:27;99239.69;;;6.97;86.88
41706;BME280;27385;51.096;17.190;2023-03-31T05:44:58;99236.79;;;7.01;87.06
41706;BME280;27385;51.096;17.190;2023-03-31T05:47:29;99232.79;;;7.06;87.33
41706;BME280;27385;51.096;17.190;2023-03-31T05:50:00;99228.92;;;7.11;87.39
41706;BME280;27385;51.096;17.190;2023-03-31T05:52:36;99223.84;;;7.17;87.61
41706;BME280;27385;51.096;17.190;2023-03-31T05:55:08;99227.73;;;7.25;87.75
41706;BME280;27385;51.096;17.190;2023-03-31T05:57:39;99227.33;;;7.34;87.96
41706;BME280;27385;51.096;17.190;2023-03-31T06:00:12;99227.60;;;7.42;88.01
41706;BME280;27385;51.096;17.190;2023-03-31T06:02:43;99224.36;;;7.52;88.16
41706;BME280;27385;51.096;17.190;2023-03-31T06:05:15;99223.43;;;7.61;88.11
41706;BME280;27385;51.096;17.190;2023-03-31T06:07:46;99220.77;;;7.70;88.20
41706;BME280;27385;51.096;17.190;2023-03-31T06:10:18;99220.10;;;7.79;88.40
41706;BME280;27385;51.096;17.190;2023-03-31T06:12:49;99221.92;;;7.90;88.45
41706;BME280;27385;51.096;17.190;2023-03-31T06:15:20;99218.29;;;7.98;88.43
41706;BME280;27385;51.096;17.190;2023-03-31T06:17:51;99215.20;;;8.05;88.38
41706;BME280;27385;51.096;17.190;2023-03-31T06:20:22;99217.27;;;8.13;88.44
41706;BME280;27385;51.096;17.190;2023-03-31T06:22:59;99212.92;;;8.22;88.48
41706;BME280;27385;51.096;17.190;2023-03-31T06:25:38;99209.17;;;8.32;88.38
41706;BME280;27385;51.096;17.190;2023-03-31T06:28:22;99206.00;;;8.42;88.54
41706;BME280;27385;51.096;17.190;2023-03-31T06:31:00;99207.09;;;8.54;88.49
41706;BME280;27385;51.096;17.190;2023-03-31T06:33:33;99204.05;;;8.67;88.66
41706;BME280;27385;51.096;17.190;2023-03-31T06:36:06;99200.58;;;8.81;88.92
41706;BME280;27385;51.096;17.190;2023-03-31T06:38:40;99200.19;;;8.99;89.06
41706;BME280;27385;51.096;17.190;2023-03-31T06:41:14;99202.54;;;9.16;88.86
41706;BME280;27385;51.096;17.190;2023-03-31T06:43:45;99203.94;;;9.31;88.55
41706;BME280;27385;51.096;17.190;2023-03-31T06:46:17;99202.64;;;9.41;88.24
41706;BME280;27385;51.096;17.190;2023-03-31T06:48:48;99199.55;;;9.48;87.95
41706;BME280;27385;51.096;17.190;2023-03-31T06:51:22;99199.06;;;9.54;87.50
41706;BME280;27385;51.096;17.190;2023-03-31T06:53:54;99195.05;;;9.58;87.42
41706;BME280;27385;51.096;17.190;2023-03-31T06:56:25;99191.98;;;9.62;87.51
41706;BME280;27385;51.096;17.190;2023-03-31T06:58:57;99188.50;;;9.66;87.24
41706;BME280;27385;51.096;17.190;2023-03-31T07:01:27;99190.05;;;9.71;87.43
41706;BME280;27385;51.096;17.190;2023-03-31T07:04:00;99185.16;;;9.76;87.42
41706;BME280;27385;51.096;17.190;2023-03-31T07:06:30;99189.82;;;9.83;87.35
41706;BME280;27385;51.096;17.190;2023-03-31T07:09:02;99194.00;;;9.91;87.35
41706;BME280;27385;51.096;17.190;2023-03-31T07:11:33;99193.24;;;9.99;87.41
41706;BME280;27385;51.096;17.190;2023-03-31T07:14:04;99198.34;;;10.12;87.19
41706;BME280;27385;51.096;17.190;2023-03-31T07:16:35;99193.31;;;10.20;87.08
41706;BME280;27385;51.096;17.190;2023-03-31T07:19:06;99194.66;;;10.28;87.16
41706;BME280;27385;51.096;17.190;2023-03-31T07:21:39;99184.17;;;10.36;87.04
41706;BME280;27385;51.096;17.190;2023-03-31T07:24:10;99176.54;;;10.45;86.92
41706;BME280;27385;51.096;17.190;2023-03-31T07:26:41;99173.61;;;10.52;86.69
41706;BME280;27385;51.096;17.190;2023-03-31T07:29:12;99166.21;;;10.58;86.72
41706;BME280;27385;51.096;17.190;2023-03-31T07:31:42;99168.20;;;10.64;86.44
41706;BME280;27385;51.096;17.190;2023-03-31T07:34:16;99166.95;;;10.69;86.48
41706;BME280;27385;51.096;17.190;2023-03-31T07:36:47;99163.49;;;10.75;86.50
41706;BME280;27385;51.096;17.190;2023-03-31T07:39:18;99156.25;;;10.82;86.36
41706;BME280;27385;51.096;17.190;2023-03-31T07:41:49;99150.72;;;10.89;86.38
41706;BME280;27385;51.096;17.190;2023-03-31T07:44:20;99148.23;;;10.97;86.57
41706;BME280;27385;51.096;17.190;2023-03-31T07:46:51;99148.64;;;11.07;86.25
41706;BME280;27385;51.096;17.190;2023-03-31T07:49:22;99144.51;;;11.17;85.93
41706;BME280;27385;51.096;17.190;2023-03-31T07:51:53;99137.14;;;11.25;85.67
41706;BME280;27385;51.096;17.190;2023-03-31T07:54:24;99136.21;;;11.32;85.64
41706;BME280;27385;51.096;17.190;2023-03-31T07:56:55;99136.65;;;11.40;85.38
41706;BME280;27385;51.096;17.190;2023-03-31T07:59:30;99129.67;;;11.47;85.27
41706;BME280;27385;51.096;17.190;2023-03-31T08:02:00;99121.99;;;11.54;85.04
41706;BME280;27385;51.096;17.190;2023-03-31T08:04:31;99117.39;;;11.61;85.00
41706;BME280;27385;51.096;17.190;2023-03-31T08:07:02;99109.61;;;11.67;84.60
41706;BME280;27385;51.096;17.190;2023-03-31T08:09:34;99113.77;;;11.71;84.18
41706;BME280;27385;51.096;17.190;2023-03-31T08:12:05;99113.36;;;11.75;84.20
41706;BME280;27385;51.096;17.190;2023-03-31T08:14:36;99117.20;;;11.82;84.28
41706;BME280;27385;51.096;17.190;2023-03-31T08:17:07;99112.27;;;11.91;84.27
41706;BME280;27385;51.096;17.190;2023-03-31T08:19:39;99106.42;;;12.01;84.47
41706;BME280;27385;51.096;17.190;2023-03-31T08:22:09;99102.45;;;12.12;84.50
41706;BME280;27385;51.096;17.190;2023-03-31T08:24:40;99105.44;;;12.24;84.46
41706;BME280;27385;51.096;17.190;2023-03-31T08:27:11;99108.66;;;12.36;84.21
41706;BME280;27385;51.096;17.190;2023-03-31T08:29:42;99108.64;;;12.50;83.69
41706;BME280;27385;51.096;17.190;2023-03-31T08:32:13;99101.95;;;12.59;82.86
41706;BME280;27385;51.096;17.190;2023-03-31T08:34:44;99103.84;;;12.65;82.50
41706;BME280;27385;51.096;17.190;2023-03-31T08:37:14;99091.84;;;12.70;82.19
41706;BME280;27385;51.096;17.190;2023-03-31T08:39:45;99090.79;;;12.74;81.85
41706;BME280;27385;51.096;17.190;2023-03-31T08:42:21;99086.15;;;12.81;82.06
41706;BME280;27385;51.096;17.190;2023-03-31T08:45:00;99077.66;;;12.90;82.21
41706;BME280;27385;51.096;17.190;2023-03-31T08:47:33;99073.48;;;13.04;82.00
41706;BME280;27385;51.096;17.190;2023-03-31T08:50:10;99065.04;;;13.14;81.14
41706;BME280;27385;51.096;17.190;2023-03-31T08:52:46;99053.42;;;13.29;81.47
41706;BME280;27385;51.096;17.190;2023-03-31T08:55:24;99045.73;;;13.46;81.19
41706;BME280;27385;51.096;17.190;2023-03-31T08:58:00;99043.68;;;13.62;81.24
41706;BME280;27385;51.096;17.190;2023-03-31T09:00:42;99049.65;;;13.75;80.12
41706;BME280;27385;51.096;17.190;2023-03-31T09:03:19;99053.05;;;13.85;79.20
41706;BME280;27385;51.096;17.190;2023-03-31T09:05:59;99048.64;;;13.94;79.10
41706;BME280;27385;51.096;17.190;2023-03-31T09:08:35;99044.36;;;14.08;78.99
41706;BME280;27385;51.096;17.190;2023-03-31T09:11:17;99034.36;;;14.25;78.61
41706;BME280;27385;51.096;17.190;2023-03-31T09:14:17;99033.80;;;14.40;77.95
41706;BME280;27385;51.096;17.190;2023-03-31T09:16:56;99031.59;;;14.50;77.06
41706;BME280;27385;51.096;17.190;2023-03-31T09:19:36;99030.73;;;14.56;77.10
41706;BME280;27385;51.096;17.190;2023-03-31T09:22:14;99028.60;;;14.65;76.70
41706;BME280;27385;51.096;17.190;2023-03-31T09:24:55;99024.79;;;14.69;76.74
41706;BME280;27385;51.096;17.190;2023-03-31T09:27:32;99019.63;;;14.76;76.76
41706;BME280;27385;51.096;17.190;2023-03-31T09:30:12;99014.17;;;14.87;76.90
41706;BME280;27385;51.096;17.190;2023-03-31T09:32:46;99010.71;;;15.02;76.97
41706;BME280;27385;51.096;17.190;2023-03-31T09:35:20;99008.73;;;15.18;76.11
41706;BME280;27385;51.096;17.190;2023-03-31T09:37:52;99004.23;;;15.23;74.76
41706;BME280;27385;51.096;17.190;2023-03-31T09:40:25;98999.35;;;15.24;74.24
41706;BME280;27385;51.096;17.190;2023-03-31T09:42:59;99002.23;;;15.24;73.60
41706;BME280;27385;51.096;17.190;2023-03-31T09:45:31;98999.61;;;15.24;73.15
41706;BME280;27385;51.096;17.190;2023-03-31T09:48:05;98995.52;;;15.29;73.85
41706;BME280;27385;51.096;17.190;2023-03-31T09:50:42;98992.42;;;15.36;73.45
41706;BME280;27385;51.096;17.190;2023-03-31T09:53:19;98991.42;;;15.40;73.33
41706;BME280;27385;51.096;17.190;2023-03-31T09:55:54;98985.42;;;15.43;72.57
41706;BME280;27385;51.096;17.190;2023-03-31T09:58:26;98984.61;;;15.40;72.24
41706;BME280;27385;51.096;17.190;2023-03-31T10:01:02;98981.25;;;15.41;71.99
41706;BME280;27385;51.096;17.190;2023-03-31T10:03:46;98980.64;;;15.35;71.22
41706;BME280;27385;51.096;17.190;2023-03-31T10:06:19;98976.68;;;15.28;71.10
41706;BME280;27385;51.096;17.190;2023-03-31T10:08:53;98968.02;;;15.17;70.08
41706;BME280;27385;51.096;17.190;2023-03-31T10:11:24;98963.63;;;15.06;70.44
41706;BME280;27385;51.096;17.190;2023-03-31T10:14:02;98961.33;;;14.98;70.05
41706;BME280;27385;51.096;17.190;2023-03-31T10:16:42;98953.30;;;14.91;70.36
41706;BME280;27385;51.096;17.190;2023-03-31T10:19:16;98955.48;;;14.88;70.32
41706;BME280;27385;51.096;17.190;2023-03-31T10:21:56;98952.77;;;14.86;70.04
41706;BME280;27385;51.096;17.190;2023-03-31T10:24:37;98947.23;;;14.87;70.33
41706;BME280;27385;51.096;17.190;2023-03-31T10:27:17;98941.77;;;14.90;70.45
41706;BME280;27385;51.096;17.190;2023-03-31T10:29:52;98942.46;;;14.94;70.26
41706;BME280;27385;51.096;17.190;2023-03-31T10:32:26;98935.36;;;14.97;70.31
41706;BME280;27385;51.096;17.190;2023-03-31T10:35:04;98931.85;;;15.01;70.26
41706;BME280;27385;51.096;17.190;2023-03-31T10:37:36;98930.50;;;15.04;69.83
41706;BME280;27385;51.096;17.190;2023-03-31T10:40:16;98928.95;;;15.02;69.03
41706;BME280;27385;51.096;17.190;2023-03-31T10:42:57;98925.52;;;15.01;69.37
41706;BME280;27385;51.096;17.190;2023-03-31T10:45:29;98920.38;;;15.00;69.44
41706;BME280;27385;51.096;17.190;2023-03-31T10:48:00;98914.35;;;15.04;69.53
41706;BME280;27385;51.096;17.190;2023-03-31T10:50:34;98907.44;;;15.05;69.21
41706;BME280;27385;51.096;17.190;2023-03-31T10:53:09;98904.04;;;15.06;69.01
41706;BME280;27385;51.096;17.190;2023-03-31T10:55:49;98901.10;;;15.02;68.76
41706;BME280;27385;51.096;17.190;2023-03-31T10:58:31;98902.14;;;15.01;68.72
41706;BME280;27385;51.096;17.190;2023-03-31T11:01:13;98898.13;;;14.98;68.70
41706;BME280;27385;51.096;17.190;2023-03-31T11:04:01;98891.04;;;14.95;68.66
41706;BME280;27385;51.096;17.190;2023-03-31T11:06:43;98888.60;;;14.95;68.56
41706;BME280;27385;51.096;17.190;2023-03-31T11:09:32;98888.17;;;14.95;68.48
41706;BME280;27385;51.096;17.190;2023-03-31T11:12:15;98879.94;;;15.00;68.80
41706;BME280;27385;51.096;17.190;2023-03-31T11:14:58;98872.02;;;15.10;69.04
41706;BME280;27385;51.096;17.190;2023-03-31T11:17:43;98868.17;;;15.20;68.91
41706;BME280;27385;51.096;17.190;2023-03-31T11:20:23;98866.75;;;15.33;68.59
41706;BME280;27385;51.096;17.190;2023-03-31T11:23:03;98853.55;;;15.50;68.84
41706;BME280;27385;51.096;17.190;2023-03-31T11:25:41;98852.05;;;15.65;67.81
41706;BME280;27385;51.096;17.190;2023-03-31T11:28:29;98844.67;;;15.78;67.35
41706;BME280;27385;51.096;17.190;2023-03-31T11:31:13;98838.77;;;15.89;67.47
41706;BME280;27385;51.096;17.190;2023-03-31T11:34:14;98830.75;;;16.01;66.51
41706;BME280;27385;51.096;17.190;2023-03-31T11:37:13;98826.06;;;16.03;66.01
41706;BME280;27385;51.096;17.190;2023-03-31T11:40:01;98820.95;;;16.05;65.88
41706;BME280;27385;51.096;17.190;2023-03-31T11:42:38;98814.75;;;16.06;65.47
41706;BME280;27385;51.096;17.190;2023-03-31T11:45:17;98811.52;;;16.05;65.26
41706;BME280;27385;51.096;17.190;2023-03-31T11:47:51;98805.84;;;16.03;65.17
41706;BME280;27385;51.096;17.190;2023-03-31T11:50:28;98795.28;;;16.02;65.11
41706;BME280;27385;51.096;17.190;2023-03-31T11:53:01;98790.02;;;15.97;65.23
41706;BME280;27385;51.096;17.190;2023-03-31T11:55:35;98787.27;;;15.95;65.34
41706;BME280;27385;51.096;17.190;2023-03-31T11:58:11;98783.35;;;15.94;65.06
41706;BME280;27385;51.096;17.190;2023-03-31T12:00:49;98783.80;;;15.92;64.66
41706;BME280;27385;51.096;17.190;2023-03-31T12:03:25;98778.60;;;15.90;64.81
41706;BME280;27385;51.096;17.190;2023-03-31T12:06:04;98773.83;;;15.88;64.92
41706;BME280;27385;51.096;17.190;2023-03-31T12:08:52;98774.16;;;15.93;64.95
41706;BME280;27385;51.096;17.190;2023-03-31T12:11:28;98769.88;;;15.98;64.85
41706;BME280;27385;51.096;17.190;2023-03-31T12:14:12;98761.66;;;16.03;64.83
41706;BME280;27385;51.096;17.190;2023-03-31T12:16:46;98759.26;;;16.07;64.35
41706;BME280;27385;51.096;17.190;2023-03-31T12:19:21;98756.36;;;16.06;63.57
41706;BME280;27385;51.096;17.190;2023-03-31T12:21:59;98758.06;;;16.04;63.24
41706;BME280;27385;51.096;17.190;2023-03-31T12:24:34;98755.80;;;15.98;62.79
41706;BME280;27385;51.096;17.190;2023-03-31T12:27:12;98753.60;;;15.90;62.64
41706;BME280;27385;51.096;17.190;2023-03-31T12:29:47;98750.21;;;15.83;62.19
41706;BME280;27385;51.096;17.190;2023-03-31T12:32:23;98752.04;;;15.74;62.13
41706;BME280;27385;51.096;17.190;2023-03-31T12:35:00;98751.48;;;15.66;61.84
41706;BME280;27385;51.096;17.190;2023-03-31T12:40:51;98743.25;;;15.58;62.20
41706;BME280;27385;51.096;17.190;2023-03-31T12:43:56;98737.55;;;15.54;62.59
41706;BME280;27385;51.096;17.190;2023-03-31T12:46:40;98736.74;;;15.56;62.67
41706;BME280;27385;51.096;17.190;2023-03-31T12:49:21;98731.69;;;15.56;62.95
41706;BME280;27385;51.096;17.190;2023-03-31T12:52:03;98727.09;;;15.58;63.16
41706;BME280;27385;51.096;17.190;2023-03-31T12:55:03;98721.02;;;15.59;63.44
41706;BME280;27385;51.096;17.190;2023-03-31T12:57:39;98717.74;;;15.57;63.20
41706;BME280;27385;51.096;17.190;2023-03-31T13:00:29;98714.56;;;15.58;63.63
41706;BME280;27385;51.096;17.190;2023-03-31T13:06:45;98702.10;;;15.63;63.67
41706;BME280;27385;51.096;17.190;2023-03-31T13:09:42;98696.23;;;15.60;63.58
41706;BME280;27385;51.096;17.190;2023-03-31T13:12:18;98694.85;;;15.56;63.85
41706;BME280;27385;51.096;17.190;2023-03-31T13:14:50;98695.17;;;15.50;63.63
41706;BME280;27385;51.096;17.190;2023-03-31T13:17:26;98694.20;;;15.44;63.73
41706;BME280;27385;51.096;17.190;2023-03-31T13:20:16;98688.71;;;15.39;63.80
41706;BME280;27385;51.096;17.190;2023-03-31T13:22:47;98687.20;;;15.32;63.81
41706;BME280;27385;51.096;17.190;2023-03-31T13:25:45;98686.11;;;15.24;64.13
41706;BME280;27385;51.096;17.190;2023-03-31T13:28:28;98683.23;;;15.19;65.04
41706;BME280;27385;51.096;17.190;2023-03-31T13:31:02;98680.71;;;15.11;65.82
41706;BME280;27385;51.096;17.190;2023-03-31T13:33:39;98673.13;;;14.99;66.46
41706;BME280;27385;51.096;17.190;2023-03-31T13:39:32;98666.67;;;14.69;68.21
41706;BME280;27385;51.096;17.190;2023-03-31T13:42:20;98665.14;;;14.56;68.72
41706;BME280;27385;51.096;17.190;2023-03-31T13:45:07;98662.20;;;14.44;69.18
41706;BME280;27385;51.096;17.190;2023-03-31T13:50:52;98646.19;;;14.23;70.34
41706;BME280;27385;51.096;17.190;2023-03-31T13:53:38;98636.14;;;14.20;70.93
41706;BME280;27385;51.096;17.190;2023-03-31T13:56:40;98635.06;;;14.17;71.55
41706;BME280;27385;51.096;17.190;2023-03-31T13:59:34;98629.02;;;14.16;72.08
41706;BME280;27385;51.096;17.190;2023-03-31T14:05:24;98621.44;;;14.11;72.99
41706;BME280;27385;51.096;17.190;2023-03-31T14:08:00;98612.80;;;14.07;73.47